Time;durP1;ratioP1;P1;durP2;ratioP2;P2;SDS_P1;SDS_P2;PMS_P1;PMS_P2;Temp;Humidity;BMP_temperature;BMP_pressure;BME280_temperature;BME280_humidity;BME280_pressure;Samples;Min_cycle;Max_cycle;Signal;HPM_P1;HPM_P2
2023/04/28 00:01:43;;;;;;;112.30;52.45;;;154.00;2252.80;;;;;;5052284;28;20059;-55
2023/04/28 00:04:09;;;;;;;55.80;31.58;;;154.00;2252.80;;;;;;5052270;28;20467;-56
2023/04/28 00:06:36;;;;;;;26.60;17.60;;;154.00;2252.80;;;;;;5052025;28;20067;-56
2023/04/28 00:09:02;;;;;;;61.03;28.77;;;154.00;2252.80;;;;;;5052440;28;20033;-58
2023/04/28 00:11:28;;;;;;;50.35;26.00;;;154.00;2252.80;;;;;;5052678;28;20040;-56
2023/04/28 00:13:53;;;;;;;27.40;14.88;;;154.00;2252.80;;;;;;5052123;28;20108;-59
2023/04/28 00:16:19;;;;;;;70.38;35.03;;;153.90;2252.80;;;;;;5052045;28;20029;-55
2023/04/28 00:18:45;;;;;;;27.90;14.95;;;153.90;2252.80;;;;;;5052018;28;20041;-54
2023/04/28 00:21:11;;;;;;;45.15;25.85;;;153.90;2252.80;;;;;;5051665;28;20032;-55
2023/04/28 00:23:36;;;;;;;20.10;13.02;;;153.90;2252.80;;;;;;5052230;28;20386;-62
2023/04/28 00:26:02;;;;;;;22.95;12.70;;;153.80;2252.80;;;;;;5052115;28;20033;-55
2023/04/28 00:28:28;;;;;;;23.60;13.63;;;153.70;2252.80;;;;;;5051666;28;20414;-56
2023/04/28 00:30:53;;;;;;;23.50;15.65;;;153.70;2252.80;;;;;;5051973;28;20032;-66
2023/04/28 00:33:19;;;;;;;78.43;39.58;;;153.70;2252.80;;;;;;5051783;28;20025;-55
2023/04/28 00:35:45;;;;;;;29.02;15.45;;;153.60;2252.80;;;;;;5051652;28;20387;-55
2023/04/28 00:38:11;;;;;;;52.25;28.55;;;153.60;2252.80;;;;;;5051178;28;20423;-55
2023/04/28 00:40:38;;;;;;;43.95;23.75;;;128.90;2252.80;;;;;;5052068;28;20148;-55
2023/04/28 00:43:04;;;;;;;31.40;17.95;;;153.60;2252.80;;;;;;5051693;28;20024;-66
2023/04/28 00:45:31;;;;;;;22.88;14.55;;;153.60;2252.80;;;;;;5051379;28;20379;-65
2023/04/28 00:47:58;;;;;;;129.95;68.30;;;128.90;2252.80;;;;;;5051796;28;20039;-58
2023/04/28 00:50:24;;;;;;;56.40;32.92;;;128.90;2252.80;;;;;;5036855;28;20029;-55
2023/04/28 00:52:51;;;;;;;34.20;21.20;;;128.90;2252.80;;;;;;5051000;28;20057;-56
2023/04/28 00:55:17;;;;;;;37.95;19.75;;;128.80;2252.80;;;;;;5051227;28;20147;-66
2023/04/28 00:57:43;;;;;;;13.02;9.05;;;128.70;2252.80;;;;;;5051834;28;20414;-58
2023/04/28 01:00:09;;;;;;;18.63;8.55;;;128.90;2252.80;;;;;;5050940;28;20021;-60
2023/04/28 01:02:35;;;;;;;19.27;9.05;;;128.90;2252.80;;;;;;5051523;28;20040;-62
2023/04/28 01:05:02;;;;;;;12.38;8.35;;;128.90;2252.80;;;;;;5051308;28;20032;-62
2023/04/28 01:07:28;;;;;;;30.80;19.27;;;128.80;2252.80;;;;;;5051209;28;20783;-61
2023/04/28 01:09:54;;;;;;;28.50;16.77;;;128.80;2252.80;;;;;;5050920;28;20025;-61
2023/04/28 01:12:20;;;;;;;22.13;11.88;;;128.80;2252.80;;;;;;5051233;28;20028;-63
2023/04/28 01:14:47;;;;;;;18.48;12.18;;;128.80;2252.80;;;;;;5051179;28;20112;-62
2023/04/28 01:17:13;;;;;;;21.60;13.00;;;128.70;2252.80;;;;;;5051143;28;20068;-57
2023/04/28 01:19:39;;;;;;;16.17;9.18;;;128.60;2252.80;;;;;;5050947;28;20051;-57
2023/04/28 01:22:05;;;;;;;27.90;14.30;;;128.70;2252.80;;;;;;5051286;28;20033;-63
2023/04/28 01:24:31;;;;;;;41.15;23.85;;;128.60;2252.80;;;;;;5050709;28;20029;-65
2023/04/28 01:26:56;;;;;;;33.78;18.17;;;128.70;2252.80;;;;;;5050783;28;20021;-56
2023/04/28 01:29:22;;;;;;;20.13;13.35;;;128.70;2252.80;;;;;;5049989;28;20029;-55
2023/04/28 01:31:48;;;;;;;169.23;87.93;;;;;;;;;;5051122;28;20032;-62
2023/04/28 01:34:14;;;;;;;46.33;23.00;;;;;;;;;;5050962;28;20025;-61
2023/04/28 01:36:40;;;;;;;78.78;39.35;;;128.60;2252.80;;;;;;5050659;28;20037;-65
2023/04/28 01:39:06;;;;;;;19.80;11.27;;;128.60;2252.80;;;;;;5047032;28;20041;-63
2023/04/28 01:41:34;;;;;;;112.05;61.15;;;128.50;2252.80;;;;;;5050559;28;20036;-65
2023/04/28 01:44:00;;;;;;;58.97;30.40;;;128.40;2252.80;;;;;;5050443;28;20400;-58
2023/04/28 01:46:26;;;;;;;65.88;35.78;;;128.60;2252.80;;;;;;5050692;28;20091;-62
2023/04/28 01:48:52;;;;;;;50.78;25.55;;;128.50;2252.80;;;;;;5050584;28;20040;-64
2023/04/28 01:51:17;;;;;;;23.38;12.60;;;128.50;2252.80;;;;;;5050260;28;20297;-55
2023/04/28 01:53:43;;;;;;;18.88;10.85;;;128.50;2252.80;;;;;;5050175;28;20479;-57
2023/04/28 01:56:09;;;;;;;37.60;22.05;;;128.60;2252.80;;;;;;5050141;28;20096;-56
2023/04/28 01:58:34;;;;;;;19.00;13.15;;;128.50;2252.80;;;;;;5050134;28;20131;-55
2023/04/28 02:01:00;;;;;;;23.15;12.73;;;128.40;2252.80;;;;;;5041302;28;20032;-63
2023/04/28 02:03:26;;;;;;;21.00;14.02;;;128.40;2252.80;;;;;;5031820;28;20029;-62
2023/04/28 02:05:52;;;;;;;17.75;11.20;;;128.40;2252.80;;;;;;5050172;28;20033;-57
2023/04/28 02:08:18;;;;;;;23.15;14.02;;;128.40;2252.80;;;;;;5049331;28;20035;-56
2023/04/28 02:10:44;;;;;;;17.35;10.55;;;128.30;2252.80;;;;;;5050239;28;20033;-55
2023/04/28 02:13:10;;;;;;;29.95;15.95;;;128.40;2252.80;;;;;;5049423;28;20025;-55
2023/04/28 02:15:42;;;;;;;59.72;28.20;;;128.30;2252.80;;;;;;5050221;28;20078;-59
2023/04/28 02:18:11;;;;;;;33.45;18.73;;;128.20;2252.80;;;;;;5050151;28;20047;-55
2023/04/28 02:20:36;;;;;;;64.82;35.75;;;128.20;2252.80;;;;;;5049729;28;20476;-57
2023/04/28 02:23:02;;;;;;;14.40;10.10;;;128.10;2252.80;;;;;;5049195;28;20108;-56
2023/04/28 02:25:28;;;;;;;88.88;40.92;;;103.20;2227.20;;;;;;5049753;28;20017;-58
2023/04/28 02:27:53;;;;;;;202.55;90.45;;;103.20;2227.20;;;;;;5049581;28;20147;-62
2023/04/28 02:30:19;;;;;;;76.30;33.80;;;103.30;2227.20;;;;;;5047837;28;20025;-62
2023/04/28 02:32:45;;;;;;;52.47;28.00;;;103.20;2227.20;;;;;;5049542;28;20035;-62
2023/04/28 02:35:11;;;;;;;65.72;35.42;;;103.20;2227.20;;;;;;5039850;28;20591;-62
2023/04/28 02:37:38;;;;;;;131.98;61.03;;;103.30;2227.20;;;;;;5045923;28;20033;-63
2023/04/28 02:40:04;;;;;;;135.32;62.75;;;103.30;2227.20;;;;;;5049353;28;20115;-65
2023/04/28 02:42:29;;;;;;;140.90;63.33;;;103.30;2227.20;;;;;;5049338;28;20537;-64
2023/04/28 02:44:55;;;;;;;65.70;30.83;;;103.30;2227.20;;;;;;5049896;28;20021;-62
2023/04/28 02:47:21;;;;;;;17.67;9.35;;;103.20;2227.20;;;;;;5049335;28;20415;-64
2023/04/28 02:49:47;;;;;;;15.00;8.52;;;103.20;2227.20;;;;;;5049402;28;20029;-65
2023/04/28 02:52:12;;;;;;;15.30;9.73;;;103.20;2227.20;;;;;;5048354;28;20131;-56
2023/04/28 02:54:38;;;;;;;15.55;8.25;;;103.20;2227.20;;;;;;5049163;28;20040;-56
2023/04/28 02:57:04;;;;;;;16.90;11.38;;;103.10;2227.20;;;;;;5049213;28;20021;-61
2023/04/28 02:59:30;;;;;;;12.77;7.55;;;103.10;2227.20;;;;;;5049156;28;20082;-65
2023/04/28 03:01:56;;;;;;;20.27;12.88;;;103.20;2227.20;;;;;;5049104;28;20025;-56
2023/04/28 03:04:21;;;;;;;15.60;10.38;;;103.20;2227.20;;;;;;5049043;28;20040;-57
2023/04/28 03:06:47;;;;;;;19.30;8.10;;;103.20;2227.20;;;;;;5048897;28;20430;-55
2023/04/28 03:09:14;;;;;;;11.50;7.30;;;103.20;2227.20;;;;;;5048880;28;20028;-58
2023/04/28 03:11:40;;;;;;;13.40;6.75;;;103.30;2227.20;;;;;;5048883;28;20349;-59
2023/04/28 03:14:06;;;;;;;13.88;7.53;;;103.30;2227.20;;;;;;5048747;28;20036;-57
2023/04/28 03:16:32;;;;;;;10.38;7.70;;;103.30;2227.20;;;;;;5049216;28;20024;-59
2023/04/28 03:18:58;;;;;;;19.98;11.85;;;103.30;2227.20;;;;;;5049192;28;20041;-66
2023/04/28 03:21:26;;;;;;;12.85;8.55;;;128.00;2252.80;;;;;;5048402;28;20376;-60
2023/04/28 03:23:52;;;;;;;14.73;9.27;;;128.00;2252.80;;;;;;5048872;28;20032;-62
2023/04/28 03:26:18;;;;;;;18.13;11.05;;;103.30;2227.20;;;;;;5048557;28;20025;-57
2023/04/28 03:28:43;;;;;;;19.60;10.88;;;128.00;2252.80;;;;;;5038776;28;20029;-55
2023/04/28 03:31:09;;;;;;;18.70;10.90;;;103.30;2227.20;;;;;;5045616;28;20025;-60
2023/04/28 03:33:35;;;;;;;17.77;10.23;;;103.30;2227.20;;;;;;5035727;28;20452;-62
2023/04/28 03:36:01;;;;;;;16.38;10.60;;;103.20;2227.20;;;;;;5045280;28;20037;-56
2023/04/28 03:38:26;;;;;;;22.88;13.60;;;103.20;2227.20;;;;;;5048693;28;20037;-56
2023/04/28 03:40:52;;;;;;;22.63;13.73;;;103.30;2227.20;;;;;;5048590;28;20028;-64
2023/04/28 03:43:18;;;;;;;19.30;12.15;;;128.00;2252.80;;;;;;5048534;28;20711;-55
2023/04/28 03:45:44;;;;;;;19.73;12.57;;;128.00;2252.80;;;;;;5048304;28;20058;-58
2023/04/28 03:48:10;;;;;;;21.48;13.82;;;128.10;2252.80;;;;;;5048535;28;20033;-64
2023/04/28 03:50:35;;;;;;;15.52;8.40;;;128.20;2252.80;;;;;;5048147;28;20017;-67
2023/04/28 03:53:01;;;;;;;16.42;8.30;;;128.40;2252.80;;;;;;5048192;28;20060;-66
2023/04/28 03:55:27;;;;;;;10.95;8.05;;;128.50;2252.80;;;;;;5048182;28;20021;-63
2023/04/28 03:57:53;;;;;;;10.55;6.95;;;128.50;2252.80;;;;;;5048157;28;20529;-64
2023/04/28 04:00:18;;;;;;;15.25;8.23;;;128.50;2252.80;;;;;;5046619;28;20096;-57
2023/04/28 04:02:44;;;;;;;13.85;8.50;;;128.40;2252.80;;;;;;5028996;28;20036;-60
2023/04/28 04:05:10;;;;;;;26.15;13.50;;;128.50;2252.80;;;;;;5028512;28;20027;-59
2023/04/28 04:07:36;;;;;;;18.92;12.52;;;128.50;2252.80;;;;;;5029256;28;20033;-54
2023/04/28 04:10:02;;;;;;;72.90;41.47;;;128.60;2252.80;;;;;;5028323;28;20022;-54
2023/04/28 04:12:27;;;;;;;68.93;40.60;;;128.60;2252.80;;;;;;5039798;28;20060;-61
2023/04/28 04:14:53;;;;;;;28.60;17.13;;;128.70;2252.80;;;;;;5030104;28;20025;-66
2023/04/28 04:17:19;;;;;;;30.75;17.15;;;128.90;2252.80;;;;;;5034953;28;20392;-56
2023/04/28 04:19:45;;;;;;;20.10;9.52;;;153.60;2252.80;;;;;;5039728;28;20033;-60
2023/04/28 04:22:10;;;;;;;17.70;9.13;;;128.80;2252.80;;;;;;5048160;28;20095;-63
2023/04/28 04:24:36;;;;;;;20.17;10.13;;;128.70;2252.80;;;;;;5051151;28;20425;-58
2023/04/28 04:27:02;;;;;;;17.38;8.88;;;128.80;2252.80;;;;;;5051795;28;20017;-65
2023/04/28 04:29:27;;;;;;;24.98;22.52;;;153.60;2252.80;;;;;;5052235;28;20036;-68
2023/04/28 04:31:53;;;;;;;15.18;10.45;;;154.30;2252.80;;;;;;5051510;28;20455;-68
2023/04/28 04:34:19;;;;;;;10.73;7.10;;;153.90;2252.80;;;;;;5052186;28;20467;-55
2023/04/28 04:36:44;;;;;;;14.20;7.15;;;153.90;2252.80;;;;;;5051901;28;20471;-54
2023/04/28 04:39:10;;;;;;;14.35;9.68;;;154.10;2252.80;;;;;;5051826;28;20130;-54
2023/04/28 04:41:36;;;;;;;12.57;7.18;;;154.20;2252.80;;;;;;5051961;28;20032;-55
2023/04/28 04:44:03;;;;;;;12.68;6.50;;;154.40;2252.80;;;;;;5051396;28;20017;-69
2023/04/28 04:46:29;;;;;;;10.93;6.55;;;205.00;2252.80;;;;;;5051600;28;20029;-55
2023/04/28 04:48:55;;;;;;;8.30;5.78;;;307.30;2304.00;;;;;;5051809;28;20040;-62
2023/04/28 04:51:20;;;;;;;8.88;7.13;;;358.50;1996.80;;;;;;5050973;28;20049;-55
2023/04/28 04:53:46;;;;;;;12.98;7.28;;;384.60;1843.20;;;;;;5049343;28;20471;-68
2023/04/28 04:56:12;;;;;;;12.07;7.82;;;410.30;1766.40;;;;;;5050461;28;20037;-68
2023/04/28 04:58:38;;;;;;;14.88;9.77;;;461.10;1664.00;;;;;;5049740;28;20479;-56
2023/04/28 05:01:04;;;;;;;12.45;8.77;;;486.50;1587.20;;;;;;5049653;28;20025;-63
2023/04/28 05:03:30;;;;;;;13.18;7.97;;;512.30;1484.80;;;;;;5048773;28;20029;-56
2023/04/28 05:05:56;;;;;;;9.13;6.82;;;537.60;1459.20;;;;;;5048634;28;20025;-68
2023/04/28 05:08:21;;;;;;;12.18;7.72;;;538.50;1408.00;;;;;;5050152;28;20103;-60
2023/04/28 05:10:47;;;;;;;12.07;7.50;;;537.70;1408.00;;;;;;5050716;28;20067;-55
2023/04/28 05:13:13;;;;;;;8.68;7.10;;;563.20;1382.40;;;;;;5051196;28;20025;-55
2023/04/28 05:15:38;;;;;;;10.15;5.93;;;563.80;1356.80;;;;;;5051273;28;20029;-55
2023/04/28 05:18:09;;;;;;;8.13;6.53;;;588.80;1305.60;;;;;;5051168;28;20045;-67
2023/04/28 05:20:35;;;;;;;9.43;6.80;;;589.10;1280.00;;;;;;5051096;28;20029;-54
2023/04/28 05:23:01;;;;;;;9.82;7.25;;;589.50;1254.40;;;;;;5050225;28;20479;-68
2023/04/28 05:25:27;;;;;;;11.13;7.05;;;614.50;1228.80;;;;;;5050867;28;20391;-68
2023/04/28 05:27:55;;;;;;;12.35;8.32;;;614.80;1203.20;;;;;;5050585;28;20033;-65
2023/04/28 05:30:20;;;;;;;10.65;8.00;;;640.10;1203.20;;;;;;5050458;28;20123;-55
2023/04/28 05:32:46;;;;;;;11.30;10.10;;;640.70;1126.40;;;;;;5050772;28;20379;-61
2023/04/28 05:35:12;;;;;;;9.60;7.18;;;665.70;1152.00;;;;;;5049896;28;20114;-56
2023/04/28 05:37:38;;;;;;;12.43;7.28;;;666.20;1126.40;;;;;;5050690;28;20621;-56
2023/04/28 05:40:06;;;;;;;9.95;7.68;;;666.50;1126.40;;;;;;5050639;28;20013;-56
2023/04/28 05:42:31;;;;;;;8.85;7.18;;;717.00;1100.80;;;;;;5050285;28;20032;-56
2023/04/28 05:44:57;;;;;;;10.52;8.18;;;717.20;1100.80;;;;;;5050716;28;20017;-56
2023/04/28 05:47:23;;;;;;;12.15;8.43;;;717.40;1075.20;;;;;;5050023;28;20547;-57
2023/04/28 05:49:48;;;;;;;12.85;8.50;;;717.10;1100.80;;;;;;5050566;28;20033;-56
2023/04/28 05:52:14;;;;;;;14.40;11.65;;;717.00;1075.20;;;;;;5049986;28;20052;-58
2023/04/28 05:54:40;;;;;;;15.23;11.50;;;742.40;1100.80;;;;;;5043761;28;20029;-60
2023/04/28 05:57:06;;;;;;;10.23;9.10;;;742.40;1075.20;;;;;;5044099;28;20029;-57
2023/04/28 05:59:31;;;;;;;14.25;10.00;;;768.10;1024.00;;;;;;5050071;28;20078;-57
2023/04/28 06:01:57;;;;;;;18.95;13.82;;;793.80;1024.00;;;;;;5049977;28;20497;-57
2023/04/28 06:04:24;;;;;;;16.30;10.60;;;819.40;998.40;;;;;;5049921;28;20013;-56
2023/04/28 06:06:50;;;;;;;23.73;17.58;;;844.90;972.80;;;;;;5049692;28;20095;-57
2023/04/28 06:09:16;;;;;;;14.30;12.13;;;844.80;947.20;;;;;;5050125;28;20167;-57
2023/04/28 06:11:41;;;;;;;16.10;13.60;;;845.40;921.60;;;;;;5049835;28;20020;-57
2023/04/28 06:14:07;;;;;;;19.33;15.00;;;845.50;921.60;;;;;;5049932;28;20488;-61
2023/04/28 06:16:33;;;;;;;26.73;20.85;;;845.70;896.00;;;;;;5049668;28;20021;-56
2023/04/28 06:18:58;;;;;;;21.52;17.52;;;870.80;896.00;;;;;;5050048;28;20021;-58
2023/04/28 06:21:26;;;;;;;28.40;19.63;;;871.30;870.40;;;;;;5049439;28;20032;-57
2023/04/28 06:23:51;;;;;;;21.50;19.00;;;845.60;947.20;;;;;;5049877;28;20029;-59
2023/04/28 06:26:17;;;;;;;25.60;22.85;;;871.00;896.00;;;;;;5049439;28;20024;-56
2023/04/28 06:28:43;;;;;;;28.55;25.45;;;870.40;921.60;;;;;;5049620;28;20029;-57
2023/04/28 06:31:08;;;;;;;34.05;26.55;;;845.50;921.60;;;;;;5040962;28;20021;-58
2023/04/28 06:33:34;;;;;;;29.38;26.50;;;870.40;921.60;;;;;;5029585;28;20176;-56
2023/04/28 06:36:00;;;;;;;27.05;23.65;;;845.20;921.60;;;;;;5030335;28;20049;-57
2023/04/28 06:38:26;;;;;;;26.05;23.38;;;844.80;947.20;;;;;;5036473;28;20047;-57
2023/04/28 06:40:52;;;;;;;27.52;24.40;;;845.50;896.00;;;;;;5030868;28;20029;-56
2023/04/28 06:43:18;;;;;;;25.80;23.13;;;819.90;921.60;;;;;;5030430;28;20455;-60
2023/04/28 06:45:44;;;;;;;26.52;23.75;;;870.80;870.40;;;;;;5029352;28;20380;-61
2023/04/28 06:48:10;;;;;;;22.20;20.02;;;896.90;844.80;;;;;;5041215;28;20016;-62
2023/04/28 06:50:36;;;;;;;21.42;17.05;;;947.30;819.20;;;;;;5049045;28;20029;-62
2023/04/28 06:53:02;;;;;;;18.85;16.85;;;947.50;819.20;;;;;;5049386;28;20063;-62
2023/04/28 06:55:28;;;;;;;19.00;15.18;;;947.20;819.20;;;;;;5049537;28;20021;-61
2023/04/28 06:57:53;;;;;;;19.60;17.05;;;870.50;870.40;;;;;;5049387;28;20091;-61
2023/04/28 07:00:19;;;;;;;27.35;18.85;;;870.80;870.40;;;;;;5048658;28;20394;-61
2023/04/28 07:02:45;;;;;;;20.63;15.82;;;844.90;921.60;;;;;;5049206;28;20032;-61
2023/04/28 07:05:11;;;;;;;19.95;14.55;;;845.20;896.00;;;;;;5048318;28;20044;-61
2023/04/28 07:07:40;;;;;;;23.85;19.02;;;819.70;896.00;;;;;;5049293;28;20029;-61
2023/04/28 07:10:06;;;;;;;20.65;17.38;;;793.80;972.80;;;;;;5040004;28;20032;-61
2023/04/28 07:12:32;;;;;;;20.10;18.00;;;820.00;921.60;;;;;;5037432;28;20025;-61
2023/04/28 07:14:57;;;;;;;24.63;19.38;;;871.30;870.40;;;;;;5048980;28;20509;-60
2023/04/28 07:17:23;;;;;;;20.65;15.80;;;922.50;844.80;;;;;;5049318;28;20542;-62
2023/04/28 07:19:49;;;;;;;20.60;15.57;;;896.20;844.80;;;;;;5048978;28;20029;-60
2023/04/28 07:22:16;;;;;;;18.27;14.30;;;845.00;896.00;;;;;;5048948;28;20498;-64
2023/04/28 07:24:42;;;;;;;17.85;13.35;;;820.00;896.00;;;;;;5048699;28;20021;-61
2023/04/28 07:27:07;;;;;;;16.00;13.20;;;820.10;870.40;;;;;;5049078;28;20021;-62
2023/04/28 07:29:34;;;;;;;15.35;13.43;;;768.90;921.60;;;;;;5048868;28;20021;-64
2023/04/28 07:32:07;;;;;;;18.85;13.05;;;871.10;870.40;;;;;;5048624;28;20032;-61
2023/04/28 07:34:34;;;;;;;12.15;10.38;;;845.10;921.60;;;;;;5048893;28;21272;-61
2023/04/28 07:37:01;;;;;;;12.25;10.07;;;794.10;921.60;;;;;;5048980;28;20025;-61
2023/04/28 07:39:27;;;;;;;15.55;11.95;;;794.00;947.20;;;;;;5048791;28;20410;-65
2023/04/28 07:41:52;;;;;;;13.07;10.27;;;845.40;896.00;;;;;;5048931;28;20378;-63
2023/04/28 07:44:18;;;;;;;15.40;11.50;;;870.50;870.40;;;;;;5048285;28;20497;-61
2023/04/28 07:46:44;;;;;;;10.85;8.70;;;870.90;870.40;;;;;;5048888;28;20017;-61
2023/04/28 07:49:09;;;;;;;11.38;9.77;;;845.20;870.40;;;;;;5048724;28;20021;-62
2023/04/28 07:51:36;;;;;;;12.65;11.35;;;870.70;844.80;;;;;;5048457;28;20490;-63
2023/04/28 07:54:01;;;;;;;10.43;9.38;;;845.40;870.40;;;;;;5032852;28;20030;-61
2023/04/28 07:56:27;;;;;;;15.32;10.23;;;793.90;921.60;;;;;;5028700;28;20033;-66
2023/04/28 07:58:53;;;;;;;12.05;9.93;;;845.70;870.40;;;;;;5044043;28;20118;-61
2023/04/28 08:01:19;;;;;;;17.65;10.45;;;;;;;;;;5052374;28;20024;-63
2023/04/28 08:03:45;;;;;;;12.70;9.82;;;844.80;870.40;;;;;;5052458;28;20407;-63
2023/04/28 08:06:11;;;;;;;16.13;8.55;;;871.30;819.20;;;;;;5052431;28;20025;-62
2023/04/28 08:08:37;;;;;;;13.95;9.25;;;896.80;819.20;;;;;;5052478;28;20108;-62
2023/04/28 08:11:03;;;;;;;21.40;13.63;;;896.20;819.20;;;;;;5052271;28;20108;-61
2023/04/28 08:13:29;;;;;;;14.57;9.07;;;845.20;870.40;;;;;;5052227;28;20029;-63
2023/04/28 08:15:55;;;;;;;10.43;8.25;;;871.30;819.20;;;;;;5041447;28;20034;-65
2023/04/28 08:18:22;;;;;;;11.85;9.00;;;870.80;819.20;;;;;;5045496;28;20029;-67
2023/04/28 08:20:48;;;;;;;9.32;8.43;;;870.90;844.80;;;;;;5042972;28;20111;-62
2023/04/28 08:23:14;;;;;;;9.70;8.05;;;844.90;870.40;;;;;;5034461;28;20440;-65
2023/04/28 08:25:40;;;;;;;9.70;8.27;;;844.80;870.40;;;;;;5041971;28;20018;-65
2023/04/28 08:28:07;;;;;;;10.45;7.78;;;820.10;844.80;;;;;;5049743;28;20064;-64
2023/04/28 08:30:33;;;;;;;13.45;10.65;;;717.60;896.00;;;;;;5050168;28;20033;-65
2023/04/28 08:32:59;;;;;;;17.52;7.55;;;717.10;921.60;;;;;;5050149;28;20024;-61
2023/04/28 08:35:25;;;;;;;14.50;7.95;;;615.20;998.40;;;;;;5050103;28;20025;-62
2023/04/28 08:37:52;;;;;;;9.50;6.63;;;615.10;998.40;;;;;;5050359;28;20159;-61
2023/04/28 08:40:18;;;;;;;8.98;6.43;;;615.20;998.40;;;;;;5049955;28;20724;-66
2023/04/28 08:42:45;;;;;;;8.82;6.90;;;615.20;1024.00;;;;;;5050329;28;20108;-62
2023/04/28 08:45:15;;;;;;;13.65;8.55;;;614.50;1049.60;;;;;;5050324;28;20056;-61
2023/04/28 08:47:44;;;;;;;14.00;7.93;;;614.50;1049.60;;;;;;5050097;28;20028;-61
2023/04/28 08:50:11;;;;;;;9.27;6.38;;;589.60;1049.60;;;;;;5036969;28;20033;-62
2023/04/28 08:52:38;;;;;;;12.15;6.38;;;589.30;1049.60;;;;;;5023347;28;20053;-64
2023/04/28 08:55:09;;;;;;;12.75;6.20;;;589.40;1075.20;;;;;;5050103;28;20029;-63
2023/04/28 08:57:42;;;;;;;10.73;6.72;;;564.10;1100.80;;;;;;5050087;28;20395;-60
2023/04/28 09:00:09;;;;;;;;;;;589.00;1100.80;;;;;;5049840;28;20106;-61
2023/04/28 09:02:36;;;;;;;16.73;6.82;;;589.30;1100.80;;;;;;5050997;28;19904;-59
2023/04/28 09:05:03;;;;;;;10.43;7.72;;;563.70;1075.20;;;;;;5051050;28;20028;-60
2023/04/28 09:07:29;;;;;;;8.65;6.20;;;563.70;1100.80;;;;;;5051131;28;20100;-63
2023/04/28 09:10:19;;;;;;;9.88;7.25;;;563.90;1126.40;;;;;;5050138;28;20167;-62
2023/04/28 09:12:46;;;;;;;8.93;6.45;;;563.90;1203.20;;;;;;5051381;28;20162;-60
2023/04/28 09:15:31;;;;;;;12.30;7.57;;;538.50;1126.40;;;;;;5050977;28;20498;-61
2023/04/28 09:17:57;;;;;;;13.57;8.27;;;537.90;1152.00;;;;;;5051120;28;20035;-65
2023/04/28 09:20:25;;;;;;;10.60;7.43;;;512.70;1152.00;;;;;;5050590;28;20468;-60
2023/04/28 09:22:51;;;;;;;10.13;5.80;;;487.30;1152.00;;;;;;5050831;28;20471;-62
2023/04/28 09:25:20;;;;;;;10.18;6.38;;;487.10;1177.60;;;;;;5051034;28;20028;-61
2023/04/28 09:27:45;;;;;;;6.75;5.43;;;487.00;1203.20;;;;;;5049568;28;20364;-60
2023/04/28 09:30:11;;;;;;;12.20;7.07;;;512.10;1254.40;;;;;;5038672;28;20024;-61
2023/04/28 09:32:37;;;;;;;16.63;7.90;;;512.20;1254.40;;;;;;5050805;28;20025;-65
2023/04/28 09:35:03;;;;;;;12.23;7.70;;;512.40;1228.80;;;;;;5050912;28;20025;-64
2023/04/28 09:37:30;;;;;;;13.48;7.40;;;512.20;1203.20;;;;;;5050179;28;20074;-61
2023/04/28 09:39:57;;;;;;;17.42;9.90;;;512.50;1203.20;;;;;;5050412;28;20474;-62
2023/04/28 09:42:42;;;;;;;15.32;9.30;;;487.30;1203.20;;;;;;5037284;28;20057;-61
2023/04/28 09:45:13;;;;;;;17.50;8.45;;;512.50;1228.80;;;;;;5050755;28;20418;-70
2023/04/28 09:47:40;;;;;;;10.48;6.90;;;487.10;1203.20;;;;;;5045925;28;20029;-61
2023/04/28 09:50:13;;;;;;;15.70;12.35;;;512.10;1203.20;;;;;;5049256;28;20480;-63
2023/04/28 09:52:40;;;;;;;10.13;6.70;;;512.60;1203.20;;;;;;5048101;28;20127;-62
2023/04/28 09:55:10;;;;;;;10.73;6.68;;;487.30;1177.60;;;;;;5048841;28;20052;-60
2023/04/28 09:57:37;;;;;;;11.68;6.93;;;487.30;1152.00;;;;;;5048886;28;20037;-62
2023/04/28 10:00:05;;;;;;;13.32;8.30;;;486.90;1177.60;;;;;;5048456;28;20075;-68
2023/04/28 10:02:33;;;;;;;13.77;7.00;;;486.80;1254.40;;;;;;5048898;28;20079;-61
2023/04/28 10:04:59;;;;;;;13.15;7.03;;;487.10;1254.40;;;;;;5048538;28;20024;-62
2023/04/28 10:07:26;;;;;;;12.40;6.78;;;486.80;1228.80;;;;;;5048702;28;20060;-62
2023/04/28 10:09:52;;;;;;;25.67;7.78;;;486.70;1203.20;;;;;;5048723;28;20033;-61
2023/04/28 10:12:22;;;;;;;17.33;8.40;;;486.80;1203.20;;;;;;5048027;28;20101;-61
2023/04/28 10:14:49;;;;;;;10.45;7.00;;;487.10;1228.80;;;;;;5048530;28;20036;-60
2023/04/28 10:17:15;;;;;;;10.38;6.03;;;487.20;1177.60;;;;;;5048582;28;20370;-60
2023/04/28 10:19:44;;;;;;;12.23;6.38;;;486.40;1203.20;;;;;;5048120;28;20107;-63
2023/04/28 10:22:40;;;;;;;8.73;5.95;;;486.70;1203.20;;;;;;5049014;28;20526;-61
2023/04/28 10:25:11;;;;;;;11.70;6.38;;;487.20;1228.80;;;;;;5024484;28;20032;-63
2023/04/28 10:27:45;;;;;;;13.30;8.52;;;512.00;1228.80;;;;;;5049788;28;20048;-61
2023/04/28 10:30:17;;;;;;;9.52;6.40;;;512.00;1203.20;;;;;;5049855;28;20507;-61
2023/04/28 10:32:44;;;;;;;9.85;6.45;;;512.40;1203.20;;;;;;5049318;28;20083;-61
2023/04/28 10:35:29;;;;;;;13.15;7.20;;;512.00;1228.80;;;;;;5049501;28;20029;-62
2023/04/28 10:38:12;;;;;;;10.93;6.90;;;512.00;1203.20;;;;;;5049442;28;20033;-61
2023/04/28 10:40:38;;;;;;;12.05;7.30;;;512.10;1228.80;;;;;;5049920;28;20515;-60
2023/04/28 10:43:05;;;;;;;10.23;6.85;;;512.20;1203.20;;;;;;5049823;28;20044;-63
2023/04/28 10:45:52;;;;;;;10.27;5.88;;;486.80;1228.80;;;;;;5049654;28;20084;-61
2023/04/28 10:48:22;;;;;;;12.30;6.53;;;486.50;1228.80;;;;;;5049474;28;20820;-60
2023/04/28 10:51:03;;;;;;;14.38;7.63;;;486.90;1228.80;;;;;;5048927;28;20107;-61
2023/04/28 10:53:53;;;;;;;12.63;6.95;;;486.70;1254.40;;;;;;5048819;28;20041;-60
2023/04/28 10:56:24;;;;;;;15.13;6.43;;;486.90;1228.80;;;;;;5049346;28;20032;-61
2023/04/28 10:58:59;;;;;;;9.98;6.68;;;486.60;1228.80;;;;;;5049102;28;20356;-61
2023/04/28 11:01:27;;;;;;;10.65;6.90;;;486.80;1203.20;;;;;;5049349;28;20021;-60
2023/04/28 11:03:58;;;;;;;12.82;7.75;;;486.70;1254.40;;;;;;5048656;28;20028;-61
2023/04/28 11:06:45;;;;;;;10.57;7.28;;;487.10;1254.40;;;;;;5049117;28;20108;-60
2023/04/28 11:09:11;;;;;;;10.32;6.13;;;486.70;1228.80;;;;;;5049166;28;20059;-61
2023/04/28 11:11:38;;;;;;;10.95;7.22;;;486.60;1228.80;;;;;;5049551;28;20053;-61
2023/04/28 11:14:19;;;;;;;10.25;6.45;;;487.00;1228.80;;;;;;5048882;28;20025;-60
2023/04/28 11:16:50;;;;;;;13.65;6.57;;;486.60;1254.40;;;;;;5048812;28;20028;-60
2023/04/28 11:19:20;;;;;;;13.68;6.65;;;486.80;1203.20;;;;;;5049083;28;20029;-63
2023/04/28 11:21:47;;;;;;;15.73;6.18;;;486.90;1203.20;;;;;;5049214;28;20029;-65
2023/04/28 11:24:12;;;;;;;10.88;6.47;;;486.90;1203.20;;;;;;5048999;28;20033;-65
2023/04/28 11:26:39;;;;;;;8.02;5.35;;;487.00;1203.20;;;;;;5049343;28;20481;-60
2023/04/28 11:29:05;;;;;;;10.25;5.60;;;486.90;1203.20;;;;;;5048880;28;20112;-62
2023/04/28 11:31:31;;;;;;;9.35;7.15;;;486.80;1177.60;;;;;;5048876;28;20103;-60
2023/04/28 11:34:03;;;;;;;9.75;6.38;;;487.00;1228.80;;;;;;5050875;28;20029;-64
2023/04/28 11:36:37;;;;;;;11.93;6.28;;;487.30;1203.20;;;;;;5052862;28;20063;-61
2023/04/28 11:39:06;;;;;;;9.90;6.03;;;512.20;1177.60;;;;;;5052830;28;20083;-72
2023/04/28 11:41:33;;;;;;;10.15;5.82;;;512.40;1203.20;;;;;;5052938;28;20032;-73
2023/04/28 11:43:59;;;;;;;12.52;6.10;;;487.30;1203.20;;;;;;5052590;28;20033;-62
2023/04/28 11:46:25;;;;;;;15.38;7.32;;;512.20;1203.20;;;;;;5052797;28;20801;-68
2023/04/28 11:49:05;;;;;;;9.48;6.18;;;487.10;1228.80;;;;;;5052419;28;20028;-68
2023/04/28 11:51:32;;;;;;;8.90;5.35;;;487.00;1203.20;;;;;;5052539;28;20041;-67
2023/04/28 11:54:00;;;;;;;10.68;7.10;;;512.10;1228.80;;;;;;5052451;28;20032;-60
2023/04/28 11:56:26;;;;;;;9.25;5.78;;;512.00;1203.20;;;;;;5052472;28;20494;-60
2023/04/28 11:59:03;;;;;;;10.13;7.18;;;512.00;1177.60;;;;;;5052586;28;20029;-60
2023/04/28 12:01:29;;;;;;;14.25;5.45;;;512.70;1203.20;;;;;;5052215;28;20025;-61
2023/04/28 12:03:55;;;;;;;9.25;6.22;;;512.50;1177.60;;;;;;5051956;28;20023;-60
2023/04/28 12:06:21;;;;;;;9.98;5.10;;;512.80;1177.60;;;;;;5052535;28;20021;-61
2023/04/28 12:08:48;;;;;;;8.40;5.38;;;512.10;1177.60;;;;;;5052314;28;20546;-69